< < Back
Terminal Aerodrome Forecast


Current Version              Previous Versions:   1  2  3  4  5  6  7  8  9  

Terminal Aerodrome Forecast

163
FTUS42 KJAX 260537
TAFGNV
TAF
KGNV 260537Z 2606/2706 VRB02KT P6SM SKC
     FM261500 07011KT P6SM FEW050
     FM270000 09005KT P6SM SKC=



Latest METAR

963
SAUS70 KWBC 261800 RRA
MTRGNV
METAR KGNV 261753Z 06007KT 10SM SCT065 30/15 A3014 RMK AO2 SLP203
T03000150 10300 20194 58016 $


USA.gov is the U.S. government's official web portal to all federal, state and local government web resources and services.